createdAt,value
2019-06-07T00:01:22.327Z,14.10
2019-06-07T00:03:53.162Z,14.10
2019-06-07T00:06:25.248Z,14.00
2019-06-07T00:08:54.278Z,14.10
2019-06-07T00:11:23.995Z,14.00
2019-06-07T00:13:55.351Z,14.00
2019-06-07T00:16:25.012Z,14.10
2019-06-07T00:18:54.664Z,14.10
2019-06-07T00:22:12.028Z,14.00
2019-06-07T00:23:55.735Z,14.00
2019-06-07T00:26:25.990Z,13.90
2019-06-07T00:28:55.757Z,13.90
2019-06-07T00:31:25.616Z,13.90
2019-06-07T00:33:56.326Z,13.90
2019-06-07T00:36:26.446Z,13.80
2019-06-07T00:38:56.333Z,13.70
2019-06-07T00:41:26.049Z,13.70
2019-06-07T00:43:55.699Z,13.70
2019-06-07T00:46:25.555Z,13.70
2019-06-07T00:48:55.277Z,13.70
2019-06-07T00:51:24.951Z,13.70
2019-06-07T00:53:54.748Z,13.70
2019-06-07T00:56:24.411Z,13.80
2019-06-07T00:59:10.707Z,13.90
2019-06-07T01:01:25.935Z,13.80
2019-06-07T01:03:55.847Z,13.80
2019-06-07T01:06:25.631Z,13.80
2019-06-07T01:08:55.295Z,13.70
2019-06-07T01:11:26.076Z,13.80
2019-06-07T01:13:55.984Z,13.90
2019-06-07T01:16:26.390Z,13.90
2019-06-07T01:18:56.252Z,13.90
2019-06-07T01:21:29.494Z,13.90
2019-06-07T01:24:11.371Z,13.90
2019-06-07T01:26:30.394Z,13.90
2019-06-07T01:28:59.946Z,13.90
2019-06-07T01:31:31.492Z,14.00
2019-06-07T01:34:01.044Z,14.00
2019-06-07T01:36:31.156Z,14.00
2019-06-07T01:39:01.011Z,14.00
2019-06-07T01:41:32.288Z,14.00
2019-06-07T01:44:02.005Z,14.00
2019-06-07T01:46:32.144Z,14.00
2019-06-07T01:49:02.037Z,14.00
2019-06-07T01:51:31.755Z,14.10
2019-06-07T01:54:48.499Z,14.00
2019-06-07T01:56:32.933Z,14.10
2019-06-07T01:59:02.652Z,14.10
2019-06-07T02:01:35.338Z,14.00
2019-06-07T02:04:04.223Z,13.90
2019-06-07T02:06:34.558Z,13.90
2019-06-07T02:09:06.392Z,13.90
2019-06-07T02:11:36.115Z,13.80
2019-06-07T02:14:06.195Z,13.80
2019-06-07T02:16:35.898Z,13.80
2019-06-07T02:19:05.609Z,13.80
2019-06-07T02:21:35.779Z,13.80
2019-06-07T02:24:05.603Z,13.80
2019-06-07T02:26:35.537Z,13.90
2019-06-07T02:29:05.529Z,13.80
2019-06-07T02:31:39.277Z,13.70
2019-06-07T02:34:06.662Z,13.60
2019-06-07T02:36:41.286Z,13.60
2019-06-07T02:39:09.337Z,13.70
2019-06-07T02:41:40.451Z,13.70
2019-06-07T02:44:10.362Z,13.70
2019-06-07T02:46:48.767Z,13.60
2019-06-07T02:49:12.819Z,13.60
2019-06-07T02:51:43.035Z,13.70
2019-06-07T02:54:12.763Z,13.70
2019-06-07T02:56:56.670Z,13.80
2019-06-07T02:59:14.219Z,13.80
2019-06-07T03:01:44.507Z,13.80
2019-06-07T03:04:15.310Z,13.70
2019-06-07T03:06:47.563Z,13.70
2019-06-07T03:09:18.715Z,13.70
2019-06-07T03:11:50.016Z,13.60
2019-06-07T03:14:22.279Z,13.50
2019-06-07T03:17:04.582Z,13.50
2019-06-07T03:19:39.524Z,13.50
2019-06-07T03:22:09.452Z,13.50
2019-06-07T03:24:42.264Z,13.50
2019-06-07T03:27:34.316Z,13.40
2019-06-07T03:29:42.335Z,13.40
2019-06-07T03:32:12.051Z,13.40
2019-06-07T03:34:43.867Z,13.40
2019-06-07T03:37:14.180Z,13.40
2019-06-07T03:39:43.823Z,13.30
2019-06-07T03:42:13.493Z,13.20
2019-06-07T03:44:43.143Z,13.20
2019-06-07T03:47:12.889Z,13.10
2019-06-07T03:49:42.886Z,13.20
2019-06-07T03:52:12.611Z,13.10
2019-06-07T03:54:43.527Z,13.10
2019-06-07T03:57:13.684Z,13.00
2019-06-07T03:59:43.464Z,13.00
2019-06-07T04:02:13.435Z,13.00
2019-06-07T04:04:43.087Z,13.00
2019-06-07T04:07:12.730Z,13.00
2019-06-07T04:09:43.430Z,13.00
2019-06-07T04:12:13.455Z,13.00
2019-06-07T04:14:43.157Z,13.00
2019-06-07T04:17:13.973Z,13.00
2019-06-07T04:19:43.967Z,13.00
2019-06-07T04:22:13.923Z,13.10
2019-06-07T04:24:43.575Z,13.20
2019-06-07T04:27:13.220Z,13.20
2019-06-07T04:30:05.690Z,13.30
2019-06-07T04:32:15.280Z,13.30
2019-06-07T04:34:45.039Z,13.30
2019-06-07T04:37:15.947Z,13.40
2019-06-07T04:39:46.072Z,13.50
2019-06-07T04:42:17.499Z,13.50
2019-06-07T04:44:48.493Z,13.60
2019-06-07T04:47:20.146Z,13.50
2019-06-07T04:49:51.332Z,13.60
2019-06-07T04:52:21.212Z,13.60
2019-06-07T04:54:50.931Z,13.70
2019-06-07T04:57:21.392Z,13.80
2019-06-07T05:00:12.063Z,13.90
2019-06-07T05:02:22.523Z,13.90
2019-06-07T05:04:52.598Z,14.10
2019-06-07T05:07:22.562Z,14.20
2019-06-07T05:09:52.203Z,14.20
2019-06-07T05:12:22.090Z,14.30
2019-06-07T05:14:51.733Z,14.30
2019-06-07T05:17:21.455Z,14.40
2019-06-07T05:19:51.102Z,14.50
2019-06-07T05:22:20.755Z,14.60
2019-06-07T05:24:50.450Z,14.70
2019-06-07T05:27:20.687Z,14.90
2019-06-07T05:30:08.801Z,15.10
2019-06-07T05:32:22.159Z,15.10
2019-06-07T05:34:51.900Z,15.20
2019-06-07T05:37:21.556Z,15.50
2019-06-07T05:39:51.590Z,15.70
2019-06-07T05:42:21.396Z,15.80
2019-06-07T05:44:51.325Z,16.00
2019-06-07T05:47:21.108Z,16.40
2019-06-07T05:49:50.949Z,16.30
2019-06-07T05:52:21.302Z,16.50
2019-06-07T05:54:50.943Z,16.40
2019-06-07T05:57:20.599Z,16.30
2019-06-07T05:59:50.247Z,16.60
2019-06-07T06:02:24.994Z,16.60
2019-06-07T06:04:51.646Z,16.80
2019-06-07T06:07:21.831Z,16.90
2019-06-07T06:09:51.466Z,17.00
2019-06-07T06:12:34.816Z,17.10
2019-06-07T06:14:52.521Z,17.20
2019-06-07T06:17:22.268Z,17.30
2019-06-07T06:19:53.471Z,17.10
2019-06-07T06:22:24.142Z,17.30
2019-06-07T06:25:29.753Z,17.90
2019-06-07T06:28:03.409Z,18.30
2019-06-07T06:29:57.320Z,18.70
2019-06-07T06:32:42.185Z,18.60
2019-06-07T06:34:58.722Z,18.30
2019-06-07T06:37:28.500Z,18.60
2019-06-07T06:39:58.429Z,19.00
2019-06-07T06:42:28.475Z,19.40
2019-06-07T06:44:58.316Z,19.50
2019-06-07T06:47:27.995Z,19.00
2019-06-07T06:49:57.731Z,18.90
2019-06-07T06:52:27.515Z,19.20
2019-06-07T06:55:00.706Z,19.20
2019-06-07T06:57:29.099Z,19.30
2019-06-07T06:59:58.935Z,19.40
2019-06-07T07:02:28.699Z,19.60
2019-06-07T07:04:58.771Z,19.40
2019-06-07T07:07:29.035Z,19.50
2019-06-07T07:10:00.234Z,19.80
2019-06-07T07:12:30.420Z,20.10
2019-06-07T07:15:00.211Z,20.40
2019-06-07T07:17:47.630Z,20.50
2019-06-07T07:20:02.690Z,20.80
2019-06-07T07:22:32.658Z,20.80
2019-06-07T07:25:02.311Z,20.60
2019-06-07T07:27:31.959Z,20.90
2019-06-07T07:30:36.169Z,21.20
2019-06-07T07:32:33.155Z,20.70
2019-06-07T07:35:02.816Z,20.70
2019-06-07T07:37:32.476Z,21.00
2019-06-07T07:40:54.740Z,20.80
2019-06-07T07:42:33.464Z,20.50
2019-06-07T07:45:03.118Z,20.40
2019-06-07T07:47:34.027Z,19.90
2019-06-07T07:50:04.245Z,19.90
2019-06-07T07:52:34.288Z,20.10
2019-06-07T07:55:04.244Z,20.10
2019-06-07T07:57:33.996Z,20.30
2019-06-07T08:00:48.110Z,20.30
2019-06-07T08:02:35.630Z,20.60
2019-06-07T08:05:21.090Z,20.60
2019-06-07T08:07:37.296Z,20.50
2019-06-07T08:10:07.196Z,20.30
2019-06-07T08:12:55.924Z,20.40
2019-06-07T08:15:08.945Z,20.80
2019-06-07T08:17:39.002Z,21.50
2019-06-07T08:20:09.122Z,22.00
2019-06-07T08:22:38.903Z,22.10
2019-06-07T08:25:09.405Z,22.00
2019-06-07T08:27:39.084Z,21.60
2019-06-07T08:30:46.580Z,21.80
2019-06-07T08:32:40.647Z,22.20
2019-06-07T08:35:11.524Z,22.70
2019-06-07T08:38:14.905Z,22.80
2019-06-07T08:40:13.023Z,22.80
2019-06-07T08:43:04.468Z,23.00
2019-06-07T08:45:16.229Z,23.30
2019-06-07T08:47:46.178Z,23.40
2019-06-07T08:50:16.596Z,22.80
2019-06-07T08:52:46.237Z,22.50
2019-06-07T08:55:16.362Z,22.60
2019-06-07T08:57:46.015Z,22.60
2019-06-07T09:00:43.339Z,22.70
2019-06-07T09:02:48.176Z,22.20
2019-06-07T09:05:18.280Z,22.40
2019-06-07T09:07:47.999Z,23.10
2019-06-07T09:10:18.196Z,23.30
2019-06-07T09:12:47.635Z,23.20
2019-06-07T09:15:23.142Z,23.50
2019-06-07T09:18:34.840Z,24.00
2019-06-07T09:20:36.434Z,24.20
2019-06-07T09:22:59.070Z,24.30
2019-06-07T09:25:25.411Z,24.20
2019-06-07T09:28:00.615Z,23.40
2019-06-07T09:30:41.294Z,23.10
2019-06-07T09:33:12.192Z,23.40
2019-06-07T09:35:43.120Z,23.30
2019-06-07T09:38:24.739Z,23.50
2019-06-07T09:40:44.635Z,24.00
2019-06-07T09:45:45.803Z,24.70
2019-06-07T09:48:34.490Z,24.50
2019-06-07T09:50:47.092Z,24.00
2019-06-07T09:53:22.338Z,23.50
2019-06-07T09:55:48.267Z,23.70
2019-06-07T09:58:50.155Z,23.90
2019-06-07T10:00:49.699Z,24.00
2019-06-07T10:03:22.394Z,24.10
2019-06-07T10:05:50.809Z,24.00
2019-06-07T10:09:26.169Z,24.40
2019-06-07T10:10:52.156Z,24.60
2019-06-07T10:13:22.264Z,24.60
2019-06-07T10:15:53.683Z,24.80
2019-06-07T10:18:23.269Z,25.10
2019-06-07T10:20:52.979Z,25.20
2019-06-07T10:23:22.673Z,25.20
2019-06-07T10:25:52.320Z,24.20
2019-06-07T10:28:22.327Z,24.10
2019-06-07T10:30:52.042Z,24.20
2019-06-07T10:33:21.892Z,24.00
2019-06-07T10:35:51.541Z,24.30
2019-06-07T10:38:21.514Z,24.60
2019-06-07T10:40:51.214Z,24.90
2019-06-07T10:43:21.847Z,25.00
2019-06-07T10:45:51.866Z,25.10
2019-06-07T10:48:24.986Z,25.10
2019-06-07T10:50:54.472Z,25.10
2019-06-07T10:53:24.521Z,25.30
2019-06-07T10:55:54.419Z,25.60
2019-06-07T10:58:24.168Z,25.70
2019-06-07T11:00:54.240Z,25.50
2019-06-07T11:03:23.897Z,25.00
2019-06-07T11:05:53.867Z,24.80
2019-06-07T11:08:23.622Z,25.00
2019-06-07T11:10:53.272Z,25.30
2019-06-07T11:13:23.007Z,25.30
2019-06-07T11:15:53.169Z,25.50
2019-06-07T11:18:22.948Z,25.50
2019-06-07T11:20:52.603Z,25.60
2019-06-07T11:23:22.283Z,25.70
2019-06-07T11:25:51.995Z,25.70
2019-06-07T11:28:22.024Z,25.40
2019-06-07T11:30:51.866Z,24.90
2019-06-07T11:33:22.052Z,24.80
2019-06-07T11:35:51.982Z,24.80
2019-06-07T11:38:22.103Z,25.00
2019-06-07T11:40:51.763Z,25.00
2019-06-07T11:43:22.003Z,25.10
2019-06-07T11:45:52.683Z,25.00
2019-06-07T11:48:22.351Z,25.30
2019-06-07T11:50:52.051Z,25.20
2019-06-07T11:53:22.076Z,25.30
2019-06-07T11:55:51.824Z,25.30
2019-06-07T11:58:22.050Z,25.30
2019-06-07T12:00:51.916Z,25.00
2019-06-07T12:03:22.673Z,24.90
2019-06-07T12:05:52.372Z,25.10
2019-06-07T12:08:22.336Z,25.30
2019-06-07T12:10:52.220Z,25.60
2019-06-07T12:13:22.043Z,25.50
2019-06-07T12:15:51.868Z,25.60
2019-06-07T12:18:21.602Z,25.80
2019-06-07T12:20:51.396Z,25.40
2019-06-07T12:23:21.288Z,25.20
2019-06-07T12:25:51.011Z,25.20
2019-06-07T12:28:21.025Z,25.30
2019-06-07T12:30:51.155Z,25.20
2019-06-07T12:33:21.707Z,25.20
2019-06-07T12:35:51.472Z,25.00
2019-06-07T12:38:22.962Z,25.10
2019-06-07T12:40:57.670Z,25.30
2019-06-07T12:43:23.905Z,25.50
2019-06-07T12:45:53.552Z,25.60
2019-06-07T12:48:25.901Z,25.40
2019-06-07T12:50:54.938Z,25.20
2019-06-07T12:53:27.912Z,25.20
2019-06-07T12:55:59.889Z,25.10
2019-06-07T12:58:34.513Z,24.60
2019-06-07T13:00:59.904Z,24.60
2019-06-07T13:03:29.884Z,24.70
2019-06-07T13:05:59.565Z,24.80
2019-06-07T13:08:29.524Z,25.00
2019-06-07T13:11:13.924Z,25.00
2019-06-07T13:13:30.651Z,24.70
2019-06-07T13:16:00.596Z,24.50
2019-06-07T13:18:30.675Z,24.40
2019-06-07T13:21:00.322Z,24.50
2019-06-07T13:23:30.943Z,24.60
2019-06-07T13:26:00.964Z,24.70
2019-06-07T13:28:31.592Z,24.70
2019-06-07T13:31:02.692Z,24.70
2019-06-07T13:33:38.089Z,24.80
2019-06-07T13:36:03.912Z,25.00
2019-06-07T13:38:33.631Z,24.90
2019-06-07T13:41:03.568Z,24.70
2019-06-07T13:43:33.308Z,24.80
2019-06-07T13:46:02.947Z,24.90
2019-06-07T13:48:32.684Z,24.90
2019-06-07T13:51:02.400Z,24.90
2019-06-07T13:53:32.043Z,24.80
2019-06-07T13:56:02.100Z,24.70
2019-06-07T13:58:31.755Z,24.70
2019-06-07T14:01:01.401Z,24.60
2019-06-07T14:03:33.843Z,24.70
2019-06-07T14:06:02.575Z,24.70
2019-06-07T14:08:32.247Z,24.80
2019-06-07T14:11:01.918Z,24.80
2019-06-07T14:13:31.638Z,24.80
2019-06-07T14:16:01.283Z,24.70
2019-06-07T14:18:30.939Z,24.70
2019-06-07T14:21:00.586Z,24.70
2019-06-07T14:23:45.884Z,24.60
2019-06-07T14:26:01.706Z,24.60
2019-06-07T14:28:34.054Z,24.50
2019-06-07T14:31:02.761Z,24.50
2019-06-07T14:33:33.839Z,24.60
2019-06-07T14:36:03.745Z,24.70
2019-06-07T14:38:37.245Z,24.70
2019-06-07T14:41:05.011Z,24.70
2019-06-07T14:43:34.927Z,24.70
2019-06-07T14:46:05.139Z,24.70
2019-06-07T14:48:34.809Z,24.70
2019-06-07T14:51:04.852Z,24.70
2019-06-07T14:53:35.475Z,24.50
2019-06-07T14:56:05.295Z,24.60
2019-06-07T14:58:39.969Z,24.70
2019-06-07T15:01:06.399Z,24.80
2019-06-07T15:03:36.687Z,24.80
2019-06-07T15:06:06.391Z,25.00
2019-06-07T15:08:36.076Z,24.90
2019-06-07T15:11:05.760Z,24.90
2019-06-07T15:13:35.833Z,24.90
2019-06-07T15:16:05.559Z,25.00
2019-06-07T15:18:36.240Z,25.00
2019-06-07T15:21:06.011Z,25.00
2019-06-07T15:23:35.663Z,25.00
2019-06-07T15:26:05.315Z,25.10
2019-06-07T15:28:36.727Z,25.20
2019-06-07T15:31:06.542Z,25.00
2019-06-07T15:33:36.594Z,25.10
2019-06-07T15:36:07.548Z,25.10
2019-06-07T15:38:37.319Z,25.10
2019-06-07T15:41:07.030Z,25.10
2019-06-07T15:43:37.400Z,25.10
2019-06-07T15:46:07.236Z,25.10
2019-06-07T15:48:38.290Z,25.00
2019-06-07T15:51:08.181Z,24.90
2019-06-07T15:53:42.422Z,24.70
2019-06-07T15:56:10.506Z,24.70
2019-06-07T15:58:41.372Z,24.80
2019-06-07T16:01:11.149Z,24.90
2019-06-07T16:03:42.118Z,25.00
2019-06-07T16:06:12.196Z,24.90
2019-06-07T16:08:42.598Z,24.80
2019-06-07T16:11:12.679Z,24.90
2019-06-07T16:13:42.878Z,24.80
2019-06-07T16:16:12.684Z,24.80
2019-06-07T16:18:44.148Z,24.90
2019-06-07T16:21:13.783Z,24.90
2019-06-07T16:23:44.122Z,25.00
2019-06-07T16:26:14.291Z,25.10
2019-06-07T16:28:44.646Z,25.10
2019-06-07T16:31:14.808Z,25.20
2019-06-07T16:33:45.189Z,25.10
2019-06-07T16:36:15.052Z,25.10
2019-06-07T16:38:44.687Z,25.20
2019-06-07T16:41:14.431Z,25.20
2019-06-07T16:43:45.134Z,25.30
2019-06-07T16:46:14.800Z,25.30
2019-06-07T16:48:45.146Z,25.40
2019-06-07T16:51:14.943Z,25.40
2019-06-07T16:53:44.697Z,25.30
2019-06-07T16:56:14.410Z,25.30
2019-06-07T16:58:44.501Z,25.30
2019-06-07T17:01:14.648Z,25.30
2019-06-07T17:03:45.581Z,25.20
2019-06-07T17:06:15.527Z,25.30
2019-06-07T17:08:46.265Z,25.10
2019-06-07T17:11:17.021Z,25.10
2019-06-07T17:13:46.768Z,25.00
2019-06-07T17:16:16.803Z,25.10
2019-06-07T17:18:47.129Z,25.00
2019-06-07T17:21:17.280Z,25.00
2019-06-07T17:23:47.502Z,24.80
2019-06-07T17:26:17.396Z,24.50
2019-06-07T17:28:47.768Z,24.30
2019-06-07T17:31:17.470Z,24.20
2019-06-07T17:33:48.124Z,24.00
2019-06-07T17:36:17.822Z,23.70
2019-06-07T17:38:48.619Z,23.60
2019-06-07T17:41:18.832Z,23.50
2019-06-07T17:43:57.778Z,23.20
2019-06-07T17:46:20.140Z,23.00
2019-06-07T17:48:51.726Z,22.90
2019-06-07T17:51:21.779Z,22.80
2019-06-07T17:53:52.076Z,22.70
2019-06-07T17:56:22.822Z,22.80
2019-06-07T17:58:52.546Z,22.70
2019-06-07T18:01:22.619Z,22.60
2019-06-07T18:03:53.194Z,22.50
2019-06-07T18:06:24.530Z,22.40
2019-06-07T18:08:55.553Z,22.30
2019-06-07T18:11:25.960Z,22.30
2019-06-07T18:14:09.414Z,22.20
2019-06-07T18:16:27.727Z,22.10
2019-06-07T18:18:57.569Z,22.00
2019-06-07T18:21:27.310Z,21.80
2019-06-07T18:23:57.196Z,21.70
2019-06-07T18:26:26.999Z,21.60
2019-06-07T18:28:56.663Z,21.60
2019-06-07T18:31:26.379Z,21.50
2019-06-07T18:33:56.378Z,21.30
2019-06-07T18:36:26.022Z,21.30
2019-06-07T18:38:55.751Z,21.20
2019-06-07T18:41:25.735Z,21.00
2019-06-07T18:43:55.458Z,20.90
2019-06-07T18:46:25.288Z,20.80
2019-06-07T18:48:55.795Z,20.70
2019-06-07T18:51:25.446Z,20.70
2019-06-07T18:53:55.772Z,20.60
2019-06-07T18:56:25.459Z,20.60
2019-06-07T18:58:55.337Z,20.40
2019-06-07T19:01:25.157Z,20.30
2019-06-07T19:03:56.079Z,20.30
2019-06-07T19:06:25.936Z,20.10
2019-06-07T19:08:58.110Z,20.00
2019-06-07T19:11:27.224Z,19.90
2019-06-07T19:13:57.195Z,19.80
2019-06-07T19:16:26.846Z,19.80
2019-06-07T19:18:57.787Z,19.70
2019-06-07T19:21:27.795Z,19.60
2019-06-07T19:23:58.055Z,19.50
2019-06-07T19:26:28.898Z,19.50
2019-06-07T19:28:58.891Z,19.30
2019-06-07T19:31:28.652Z,19.20
2019-06-07T19:33:59.418Z,19.10
2019-06-07T19:36:29.208Z,19.10
2019-06-07T19:39:00.002Z,19.10
2019-06-07T19:41:30.180Z,19.10
2019-06-07T19:44:00.395Z,19.00
2019-06-07T19:46:30.834Z,19.00
2019-06-07T19:49:00.822Z,19.00
2019-06-07T19:51:30.715Z,18.90
2019-06-07T19:54:01.759Z,18.80
2019-06-07T19:56:32.012Z,18.80
2019-06-07T19:59:01.854Z,18.80
2019-06-07T20:01:32.800Z,18.80
2019-06-07T20:04:02.703Z,18.80
2019-06-07T20:06:33.678Z,18.80
2019-06-07T20:09:05.007Z,18.80
2019-06-07T20:11:35.031Z,18.80
2019-06-07T20:14:05.042Z,18.70
2019-06-07T20:16:35.296Z,18.60
2019-06-07T20:19:06.217Z,18.50
2019-06-07T20:21:35.991Z,18.50
2019-06-07T20:24:22.505Z,18.50
2019-06-07T20:26:37.136Z,18.50
2019-06-07T20:29:14.560Z,18.40
2019-06-07T20:31:38.504Z,18.40
2019-06-07T20:34:09.065Z,18.30
2019-06-07T20:36:38.847Z,18.30
2019-06-07T20:39:08.488Z,18.30
2019-06-07T20:41:38.153Z,18.20
2019-06-07T20:44:08.128Z,18.20
2019-06-07T20:46:37.916Z,18.20
2019-06-07T20:49:08.439Z,18.10
2019-06-07T20:51:38.159Z,18.10
2019-06-07T20:54:09.046Z,18.10
2019-06-07T20:56:38.982Z,18.10
2019-06-07T20:59:08.921Z,18.00
2019-06-07T21:01:42.507Z,17.90
2019-06-07T21:04:10.312Z,17.80
2019-06-07T21:06:40.319Z,17.80
2019-06-07T21:09:10.337Z,17.80
2019-06-07T21:11:40.236Z,17.90
2019-06-07T21:14:10.271Z,17.90
2019-06-07T21:16:40.067Z,18.00
2019-06-07T21:19:10.435Z,18.00
2019-06-07T21:21:40.362Z,18.00
2019-06-07T21:24:10.914Z,18.00
2019-06-07T21:26:40.747Z,18.00
2019-06-07T21:29:12.001Z,18.00
2019-06-07T21:31:41.934Z,18.00
2019-06-07T21:34:14.008Z,18.00
2019-06-07T21:36:43.021Z,18.10
2019-06-07T21:39:12.661Z,18.10
2019-06-07T21:41:42.319Z,18.10
2019-06-07T21:44:12.443Z,18.10
2019-06-07T21:46:42.215Z,18.10
2019-06-07T21:49:12.968Z,18.10
2019-06-07T21:51:42.701Z,18.00
2019-06-07T21:54:14.753Z,17.80
2019-06-07T21:56:43.939Z,17.80
2019-06-07T21:59:13.629Z,17.60
2019-06-07T22:01:43.440Z,17.20
2019-06-07T22:04:13.733Z,17.10
2019-06-07T22:06:43.931Z,17.10
2019-06-07T22:09:14.682Z,17.10
2019-06-07T22:11:44.507Z,17.20
2019-06-07T22:14:14.616Z,17.30
2019-06-07T22:16:44.279Z,17.30
2019-06-07T22:19:14.908Z,17.20
2019-06-07T22:21:44.728Z,17.20
2019-06-07T22:24:15.103Z,17.20
2019-06-07T22:26:44.921Z,17.30
2019-06-07T22:29:14.595Z,17.50
2019-06-07T22:31:44.453Z,17.60
2019-06-07T22:34:15.081Z,17.70
2019-06-07T22:36:45.161Z,17.80
2019-06-07T22:39:15.814Z,17.80
2019-06-07T22:41:45.592Z,17.90
2019-06-07T22:44:15.247Z,17.90
2019-06-07T22:46:46.168Z,17.90
2019-06-07T22:49:15.812Z,18.00
2019-06-07T22:51:45.458Z,18.00
2019-06-07T22:54:16.099Z,18.00
2019-06-07T22:56:54.014Z,18.00
2019-06-07T22:59:23.667Z,18.10
2019-06-07T23:01:54.279Z,18.00
2019-06-07T23:04:23.932Z,18.00
2019-06-07T23:06:53.583Z,17.90
2019-06-07T23:09:23.230Z,17.90
2019-06-07T23:11:52.966Z,18.00
2019-06-07T23:14:25.590Z,18.00
2019-06-07T23:16:55.718Z,18.10
2019-06-07T23:19:25.724Z,18.20
2019-06-07T23:21:55.669Z,18.20
2019-06-07T23:24:25.533Z,18.10
2019-06-07T23:26:55.239Z,18.10
2019-06-07T23:29:24.973Z,18.10
2019-06-07T23:31:54.624Z,18.10
2019-06-07T23:34:24.326Z,18.10
2019-06-07T23:36:54.319Z,18.10
2019-06-07T23:39:23.972Z,18.10
2019-06-07T23:41:53.925Z,18.20
2019-06-07T23:44:23.606Z,18.20
2019-06-07T23:46:53.423Z,18.20
2019-06-07T23:49:23.330Z,18.20
2019-06-07T23:51:54.119Z,18.20
2019-06-07T23:54:23.900Z,18.10
2019-06-07T23:56:53.671Z,18.10
2019-06-07T23:59:23.583Z,18.10
